LYX weather

Lydd Airport
Lydd, Ashford, England, United Kingdom

Public forecast

Using degrees Celsius for public forecast. Weather courtesy of forecast.io.

METAR (pilot weather report)

Retrieved 2019/03/24 14:50 UTC (14 minutes ago):

EGMD 241450Z 19008KT 9999 FEW014 12/03 Q1029

TAF (pilot weather forecast)

Forecast is more than 12 hours old.

Closest forecast is Kent International Airport, 27.8 nm (51.5 km) NNE. Retrieved 2011/04/02 07:09 UTC (8 years ago):

TAF TAF EGMH 020705Z 0207/0219 16014KT CAVOK TEMPO 0207/0213 17015G25KT BECMG 0212/0214 23013KT TEMPO 0212/0215 8000 -SHRA